createdAt,value
2023-05-20T00:01:57.196Z,3.60
2023-05-20T00:04:26.106Z,3.50
2023-05-20T00:06:53.096Z,3.40
2023-05-20T00:09:20.005Z,3.30
2023-05-20T00:11:47.319Z,3.22
2023-05-20T00:14:14.365Z,3.38
2023-05-20T00:16:42.026Z,3.22
2023-05-20T00:19:09.908Z,2.88
2023-05-20T00:21:37.486Z,3.60
2023-05-20T00:24:04.458Z,2.80
2023-05-20T00:26:31.385Z,3.55
2023-05-20T00:28:59.082Z,2.95
2023-05-20T00:31:26.123Z,3.10
2023-05-20T00:34:18.360Z,2.67
2023-05-20T00:36:45.191Z,3.40
2023-05-20T00:39:13.490Z,3.03
2023-05-20T00:41:40.302Z,3.20
2023-05-20T00:44:07.249Z,3.47
2023-05-20T00:46:35.630Z,3.50
2023-05-20T00:49:02.577Z,3.35
2023-05-20T00:51:30.105Z,3.65
2023-05-20T00:54:02.423Z,3.88
2023-05-20T00:56:29.992Z,3.63
2023-05-20T00:58:58.005Z,3.97
2023-05-20T01:01:26.046Z,3.38
2023-05-20T01:03:53.556Z,3.85
2023-05-20T01:06:20.814Z,4.15
2023-05-20T01:08:48.108Z,3.95
2023-05-20T01:11:51.518Z,4.00
2023-05-20T01:14:24.674Z,3.90
2023-05-20T01:16:55.539Z,3.30
2023-05-20T01:19:31.509Z,3.55
2023-05-20T01:22:00.844Z,3.88
2023-05-20T01:24:27.644Z,3.80
2023-05-20T01:26:54.877Z,3.80
2023-05-20T01:29:21.831Z,3.90
2023-05-20T01:31:49.340Z,3.75
2023-05-20T01:34:16.383Z,3.65
2023-05-20T01:36:46.393Z,4.20
2023-05-20T01:39:15.416Z,4.25
2023-05-20T01:41:44.159Z,4.45
2023-05-20T01:44:11.814Z,4.57
2023-05-20T01:46:40.136Z,3.92
2023-05-20T01:49:07.212Z,3.80
2023-05-20T01:51:34.068Z,4.10
2023-05-20T01:54:01.318Z,4.10
2023-05-20T01:56:31.948Z,4.07
2023-05-20T01:59:00.482Z,4.20
2023-05-20T02:01:52.609Z,4.13
2023-05-20T02:04:22.471Z,3.67
2023-05-20T02:06:49.506Z,3.97
2023-05-20T02:09:18.403Z,4.32
2023-05-20T02:11:45.279Z,3.90
2023-05-20T02:14:12.511Z,5.13
2023-05-20T02:16:39.511Z,4.32
2023-05-20T02:19:06.656Z,5.40
2023-05-20T02:21:33.764Z,5.30
2023-05-20T02:24:00.857Z,4.90
2023-05-20T02:26:27.834Z,4.70
2023-05-20T02:28:55.700Z,4.93
2023-05-20T02:31:22.476Z,4.85
2023-05-20T02:33:50.014Z,5.35
2023-05-20T02:36:18.536Z,4.90
2023-05-20T02:38:46.093Z,4.17
2023-05-20T02:41:13.879Z,4.90
2023-05-20T02:43:44.094Z,5.40
2023-05-20T02:46:10.967Z,6.25
2023-05-20T02:48:39.959Z,5.53
2023-05-20T02:51:07.532Z,5.60
2023-05-20T02:53:34.992Z,5.65
2023-05-20T02:56:03.364Z,5.03
2023-05-20T02:58:32.556Z,5.32
2023-05-20T03:00:59.507Z,5.53
2023-05-20T03:03:26.609Z,5.93
2023-05-20T03:05:58.458Z,5.47
2023-05-20T03:08:26.046Z,5.93
2023-05-20T03:10:55.531Z,5.00
2023-05-20T03:13:22.285Z,6.10
2023-05-20T03:15:49.340Z,5.03
2023-05-20T03:18:17.316Z,6.05
2023-05-20T03:20:49.629Z,6.30
2023-05-20T03:23:18.043Z,6.18
2023-05-20T03:26:09.833Z,6.32
2023-05-20T03:28:37.038Z,6.17
2023-05-20T03:31:03.986Z,6.03
2023-05-20T03:33:55.638Z,7.72
2023-05-20T03:36:22.864Z,7.70
2023-05-20T03:38:50.240Z,7.35
2023-05-20T03:41:17.553Z,7.57
2023-05-20T03:43:44.875Z,7.60
2023-05-20T03:46:11.994Z,6.95
2023-05-20T03:48:38.968Z,6.53
2023-05-20T03:51:06.484Z,6.55
2023-05-20T03:53:33.799Z,5.77
2023-05-20T03:56:05.474Z,5.15
2023-05-20T03:58:32.374Z,5.28
2023-05-20T04:00:59.319Z,5.05
2023-05-20T04:03:26.804Z,5.57
2023-05-20T04:05:54.022Z,5.50
2023-05-20T04:08:22.175Z,6.28
2023-05-20T04:10:48.978Z,6.50
2023-05-20T04:13:16.550Z,7.05
2023-05-20T04:15:43.524Z,7.10
2023-05-20T04:18:12.446Z,8.23
2023-05-20T04:20:43.039Z,7.05
2023-05-20T04:23:14.500Z,8.98
2023-05-20T04:25:41.985Z,7.88
2023-05-20T04:28:08.962Z,8.35
2023-05-20T04:30:35.867Z,8.40
2023-05-20T04:33:02.953Z,8.75
2023-05-20T04:35:29.999Z,8.98
2023-05-20T04:38:01.414Z,8.98
2023-05-20T04:40:29.646Z,10.30
2023-05-20T04:43:00.206Z,9.57
2023-05-20T04:45:27.153Z,8.85
2023-05-20T04:47:58.529Z,9.52
2023-05-20T04:50:30.085Z,9.93
2023-05-20T04:53:00.612Z,8.98
2023-05-20T04:55:29.522Z,9.33
2023-05-20T04:57:56.786Z,9.80
2023-05-20T05:00:23.654Z,9.40
2023-05-20T05:02:50.611Z,9.02
2023-05-20T05:05:18.417Z,9.00
2023-05-20T05:07:46.113Z,9.27
2023-05-20T05:10:13.096Z,8.43
2023-05-20T05:13:05.778Z,7.90
2023-05-20T05:15:33.577Z,8.27
2023-05-20T05:18:06.571Z,8.02
2023-05-20T05:20:35.589Z,9.00
2023-05-20T05:23:02.641Z,8.98
2023-05-20T05:25:29.989Z,8.93
2023-05-20T05:27:59.798Z,9.02
2023-05-20T05:30:32.540Z,8.43
2023-05-20T05:33:01.461Z,8.57
2023-05-20T05:35:34.423Z,8.80
2023-05-20T05:38:02.294Z,8.13
2023-05-20T05:40:30.506Z,8.05
2023-05-20T05:42:59.003Z,8.43
2023-05-20T05:45:32.805Z,8.33
2023-05-20T05:47:59.911Z,8.95
2023-05-20T05:50:27.118Z,8.32
2023-05-20T05:52:54.482Z,7.90
2023-05-20T05:55:21.997Z,8.40
2023-05-20T05:57:48.962Z,7.33
2023-05-20T06:00:17.167Z,7.82
2023-05-20T06:02:47.840Z,7.45
2023-05-20T06:05:29.836Z,7.07
2023-05-20T06:08:21.475Z,7.30
2023-05-20T06:10:50.704Z,6.57
2023-05-20T06:13:18.165Z,6.70
2023-05-20T06:15:49.647Z,6.43
2023-05-20T06:18:18.563Z,6.90
2023-05-20T06:20:55.436Z,6.47
2023-05-20T06:23:48.647Z,6.07
2023-05-20T06:26:16.718Z,5.90
2023-05-20T06:28:43.525Z,6.50
2023-05-20T06:31:11.573Z,6.03
2023-05-20T06:33:39.738Z,5.90
2023-05-20T06:36:10.538Z,5.93
2023-05-20T06:38:41.585Z,6.05
2023-05-20T06:41:09.338Z,6.57
2023-05-20T06:43:36.135Z,7.15
2023-05-20T06:46:37.692Z,6.78
2023-05-20T06:49:09.894Z,6.07
2023-05-20T06:51:36.719Z,6.90
2023-05-20T06:54:04.594Z,6.40
2023-05-20T06:56:31.605Z,6.25
2023-05-20T06:58:59.456Z,6.75
2023-05-20T07:01:29.621Z,6.77
2023-05-20T07:03:57.158Z,7.00
2023-05-20T07:06:24.678Z,7.18
2023-05-20T07:08:52.114Z,6.78
2023-05-20T07:11:19.762Z,6.32
2023-05-20T07:13:46.697Z,6.43
2023-05-20T07:16:15.568Z,6.90
2023-05-20T07:18:47.133Z,6.70
2023-05-20T07:21:15.123Z,5.85
2023-05-20T07:23:50.463Z,6.45
2023-05-20T07:26:18.174Z,6.47
2023-05-20T07:28:45.082Z,6.65
2023-05-20T07:36:53.628Z,5.97
2023-05-20T07:39:20.555Z,7.20
2023-05-20T07:41:47.544Z,6.80
2023-05-20T07:44:14.421Z,6.72
2023-05-20T07:46:48.513Z,5.95
2023-05-20T07:49:15.452Z,6.30
2023-05-20T07:51:44.109Z,6.30
2023-05-20T07:54:13.568Z,6.68
2023-05-20T07:56:43.189Z,6.63
2023-05-20T07:59:35.880Z,6.25
2023-05-20T08:02:03.357Z,6.30
2023-05-20T08:04:31.187Z,6.17
2023-05-20T08:06:58.521Z,6.65
2023-05-20T08:09:41.033Z,6.70
2023-05-20T08:12:08.309Z,6.05
2023-05-20T08:14:35.250Z,5.90
2023-05-20T08:17:03.558Z,6.07
2023-05-20T08:19:30.609Z,6.25
2023-05-20T08:21:58.508Z,6.38
2023-05-20T08:24:25.391Z,6.28
2023-05-20T08:26:53.072Z,6.15
2023-05-20T08:29:45.548Z,6.63
2023-05-20T08:32:13.132Z,6.00
2023-05-20T08:34:41.997Z,6.05
2023-05-20T08:37:10.583Z,6.07
2023-05-20T08:39:38.162Z,6.50
2023-05-20T08:42:06.830Z,6.57
2023-05-20T08:44:34.911Z,6.20
2023-05-20T08:47:03.148Z,6.60
2023-05-20T08:49:30.352Z,5.70
2023-05-20T08:52:01.057Z,6.22
2023-05-20T08:54:42.712Z,6.35
2023-05-20T08:57:35.279Z,6.43
2023-05-20T09:00:05.588Z,6.43
2023-05-20T09:02:32.382Z,6.07
2023-05-20T09:05:03.139Z,5.85
2023-05-20T09:07:34.668Z,6.15
2023-05-20T09:10:01.534Z,5.93
2023-05-20T09:12:28.496Z,5.70
2023-05-20T09:14:55.653Z,6.40
2023-05-20T09:17:24.150Z,6.00
2023-05-20T09:19:52.820Z,5.90
2023-05-20T09:22:27.887Z,5.45
2023-05-20T09:24:56.105Z,5.93
2023-05-20T09:27:23.231Z,5.68
2023-05-20T09:29:50.858Z,6.10
2023-05-20T09:32:22.642Z,5.85
2023-05-20T09:34:51.109Z,6.57
2023-05-20T09:37:19.424Z,6.22
2023-05-20T09:39:52.420Z,6.00
2023-05-20T09:42:27.585Z,5.50
2023-05-20T09:44:58.815Z,6.65
2023-05-20T09:47:27.129Z,5.97
2023-05-20T09:49:55.514Z,5.32
2023-05-20T09:52:22.721Z,5.55
2023-05-20T09:57:42.406Z,6.03
2023-05-20T10:00:09.702Z,5.88
2023-05-20T10:02:49.420Z,6.10
2023-05-20T10:05:20.225Z,6.72
2023-05-20T10:08:22.669Z,5.60
2023-05-20T10:11:02.408Z,5.65
2023-05-20T10:13:39.530Z,4.55
2023-05-20T10:16:14.855Z,5.40
2023-05-20T10:18:48.613Z,5.20
2023-05-20T10:21:19.036Z,5.15
2023-05-20T10:23:46.095Z,5.35
2023-05-20T10:26:14.580Z,5.63
2023-05-20T10:29:17.761Z,5.72
2023-05-20T10:31:50.981Z,5.32
2023-05-20T10:34:20.095Z,5.38
2023-05-20T10:36:58.227Z,5.38
2023-05-20T10:39:31.837Z,5.70
2023-05-20T10:42:09.411Z,5.40
2023-05-20T10:44:47.378Z,5.57
2023-05-20T10:49:46.083Z,5.38
2023-05-20T10:52:19.705Z,5.90
2023-05-20T10:54:57.887Z,6.32
2023-05-20T10:57:27.398Z,5.80
2023-05-20T10:59:56.428Z,5.70
2023-05-20T11:02:24.494Z,5.22
2023-05-20T11:04:51.422Z,6.35
2023-05-20T11:07:32.643Z,5.43
2023-05-20T11:10:01.027Z,5.47
2023-05-20T11:12:28.554Z,5.85
2023-05-20T11:14:55.531Z,5.70
2023-05-20T11:17:22.659Z,6.25
2023-05-20T11:19:50.974Z,5.82
2023-05-20T11:22:17.775Z,6.43
2023-05-20T11:24:47.624Z,5.63
2023-05-20T11:27:14.521Z,6.07
2023-05-20T11:29:42.559Z,5.57
2023-05-20T11:32:09.518Z,6.38
2023-05-20T11:34:38.620Z,5.97
2023-05-20T11:37:11.119Z,6.20
2023-05-20T11:39:38.569Z,5.57
2023-05-20T11:42:05.500Z,5.97
2023-05-20T11:44:36.058Z,5.90
2023-05-20T11:47:04.617Z,5.22
2023-05-20T11:49:40.114Z,4.55
2023-05-20T11:52:09.554Z,4.80
2023-05-20T11:54:37.146Z,5.80
2023-05-20T11:57:06.856Z,5.63
2023-05-20T11:59:34.961Z,4.90
2023-05-20T12:11:47.350Z,6.00
2023-05-20T12:14:17.974Z,11.27
2023-05-20T12:16:45.365Z,5.60
2023-05-20T12:19:12.808Z,5.25
2023-05-20T12:21:40.761Z,4.55
2023-05-20T12:24:09.338Z,4.90
2023-05-20T12:26:36.818Z,4.32
2023-05-20T12:29:04.325Z,4.07
2023-05-20T12:31:34.842Z,4.10
2023-05-20T12:34:04.383Z,4.18
2023-05-20T12:36:32.381Z,4.30
2023-05-20T12:38:59.221Z,4.43
2023-05-20T12:41:28.345Z,3.85
2023-05-20T12:43:55.093Z,3.90
2023-05-20T12:46:24.412Z,4.00
2023-05-20T12:48:52.807Z,4.50
2023-05-20T12:51:19.831Z,4.20
2023-05-20T12:53:46.918Z,4.03
2023-05-20T12:56:15.261Z,4.00
2023-05-20T12:58:45.846Z,3.78
2023-05-20T13:01:13.428Z,3.92
2023-05-20T13:03:40.793Z,3.78
2023-05-20T13:06:07.767Z,3.70
2023-05-20T13:08:36.361Z,3.58
2023-05-20T13:11:03.872Z,3.53
2023-05-20T13:13:30.779Z,3.50
2023-05-20T13:16:01.438Z,6.60
2023-05-20T13:18:29.325Z,3.78
2023-05-20T13:20:56.060Z,7.35
2023-05-20T13:23:24.422Z,5.00
2023-05-20T13:25:51.313Z,3.33
2023-05-20T13:28:18.277Z,4.00
2023-05-20T13:30:45.126Z,3.78
2023-05-20T13:33:12.274Z,3.42
2023-05-20T13:35:39.161Z,3.40
2023-05-20T13:38:06.084Z,3.20
2023-05-20T13:40:33.043Z,3.38
2023-05-20T13:43:00.261Z,3.90
2023-05-20T13:45:32.345Z,3.35
2023-05-20T13:47:59.157Z,3.38
2023-05-20T13:50:51.542Z,3.88
2023-05-20T13:53:18.693Z,3.85
2023-05-20T13:55:45.838Z,3.70
2023-05-20T13:58:13.011Z,3.60
2023-05-20T14:00:40.412Z,3.58
2023-05-20T14:03:07.886Z,3.47
2023-05-20T14:05:36.327Z,3.53
2023-05-20T14:08:04.345Z,3.70
2023-05-20T14:10:35.001Z,3.72
2023-05-20T14:13:27.571Z,3.50
2023-05-20T14:15:55.851Z,3.70
2023-05-20T14:18:23.614Z,3.50
2023-05-20T14:20:50.353Z,3.72
2023-05-20T14:23:17.276Z,3.38
2023-05-20T14:25:48.397Z,3.63
2023-05-20T14:28:16.748Z,3.45
2023-05-20T14:30:43.531Z,3.28
2023-05-20T14:33:11.469Z,4.43
2023-05-20T14:35:39.647Z,4.00
2023-05-20T14:38:06.891Z,3.50
2023-05-20T14:40:34.624Z,3.55
2023-05-20T14:43:05.791Z,3.35
2023-05-20T14:45:32.659Z,3.10
2023-05-20T14:47:59.573Z,3.47
2023-05-20T14:50:26.307Z,3.60
2023-05-20T14:52:56.937Z,3.55
2023-05-20T14:55:23.706Z,3.33
2023-05-20T14:57:50.588Z,3.78
2023-05-20T15:00:17.796Z,3.65
2023-05-20T15:02:44.667Z,3.97
2023-05-20T15:05:11.590Z,3.75
2023-05-20T15:07:40.334Z,3.60
2023-05-20T15:10:07.620Z,3.80
2023-05-20T15:12:35.834Z,3.40
2023-05-20T15:15:04.344Z,3.80
2023-05-20T15:17:31.815Z,3.80
2023-05-20T15:20:02.999Z,3.50
2023-05-20T15:22:29.790Z,3.65
2023-05-20T15:24:58.308Z,3.65
2023-05-20T15:27:25.156Z,3.60
2023-05-20T15:29:56.151Z,3.63
2023-05-20T15:32:22.970Z,3.45
2023-05-20T15:34:53.865Z,3.63
2023-05-20T15:37:21.387Z,3.92
2023-05-20T15:39:48.356Z,3.83
2023-05-20T15:42:16.331Z,4.03
2023-05-20T15:44:43.268Z,3.83
2023-05-20T15:47:10.904Z,3.90
2023-05-20T15:49:37.755Z,3.58
2023-05-20T15:52:04.981Z,3.90
2023-05-20T15:54:32.893Z,3.75
2023-05-20T15:56:59.929Z,3.78
2023-05-20T15:59:28.861Z,3.60
2023-05-20T16:01:55.818Z,3.67
2023-05-20T16:04:22.893Z,3.63
2023-05-20T16:06:53.309Z,3.60
2023-05-20T16:09:20.287Z,3.40
2023-05-20T16:11:47.146Z,3.80
2023-05-20T16:14:16.372Z,3.70
2023-05-20T16:16:43.191Z,3.88
2023-05-20T16:19:10.243Z,4.25
2023-05-20T16:21:37.494Z,3.60
2023-05-20T16:24:07.770Z,3.97
2023-05-20T16:26:36.411Z,3.97
2023-05-20T16:29:04.724Z,3.75
2023-05-20T16:31:31.661Z,3.88
2023-05-20T16:33:58.785Z,3.92
2023-05-20T16:36:26.155Z,3.58
2023-05-20T16:38:53.069Z,3.92
2023-05-20T16:41:21.345Z,3.53
2023-05-20T16:43:48.839Z,4.10
2023-05-20T16:46:15.637Z,4.13
2023-05-20T16:48:43.338Z,3.92
2023-05-20T16:51:10.079Z,3.92
2023-05-20T16:53:37.532Z,3.35
2023-05-20T16:56:10.396Z,3.88
2023-05-20T16:58:37.815Z,3.40
2023-05-20T17:01:05.326Z,3.72
2023-05-20T17:03:32.249Z,4.00
2023-05-20T17:06:00.417Z,4.00
2023-05-20T17:08:27.587Z,3.80
2023-05-20T17:10:55.347Z,4.07
2023-05-20T17:13:22.310Z,3.72
2023-05-20T17:15:49.788Z,3.70
2023-05-20T17:18:45.481Z,3.63
2023-05-20T17:21:13.521Z,3.90
2023-05-20T17:23:42.741Z,4.00
2023-05-20T17:29:04.431Z,3.65
2023-05-20T17:31:31.237Z,3.75
2023-05-20T17:33:58.226Z,4.38
2023-05-20T17:36:25.277Z,3.38
2023-05-20T17:38:52.195Z,3.80
2023-05-20T17:41:19.331Z,3.78
2023-05-20T17:43:46.137Z,4.22
2023-05-20T17:46:13.997Z,3.92
2023-05-20T17:48:40.781Z,4.10
2023-05-20T17:51:09.296Z,4.10
2023-05-20T17:53:36.129Z,3.78
2023-05-20T17:56:03.087Z,4.03
2023-05-20T17:58:29.964Z,4.18
2023-05-20T18:00:56.980Z,4.10
2023-05-20T18:03:24.044Z,4.18
2023-05-20T18:05:51.250Z,3.95
2023-05-20T18:08:19.318Z,4.00
2023-05-20T18:10:46.218Z,4.10
2023-05-20T18:13:13.359Z,4.00
2023-05-20T18:15:40.196Z,4.18
2023-05-20T18:18:08.762Z,3.80
2023-05-20T18:20:35.903Z,4.10
2023-05-20T18:23:03.159Z,4.22
2023-05-20T18:25:30.026Z,4.35
2023-05-20T18:27:56.875Z,3.92
2023-05-20T18:30:23.820Z,4.22
2023-05-20T18:32:50.686Z,3.75
2023-05-20T18:35:17.688Z,4.43
2023-05-20T18:37:44.687Z,4.78
2023-05-20T18:40:12.068Z,4.95
2023-05-20T18:42:38.930Z,4.32
2023-05-20T18:45:06.329Z,4.47
2023-05-20T18:47:33.334Z,4.03
2023-05-20T18:50:00.262Z,4.57
2023-05-20T18:52:27.084Z,4.35
2023-05-20T18:54:53.903Z,4.45
2023-05-20T18:57:20.878Z,4.50
2023-05-20T18:59:47.636Z,4.80
2023-05-20T19:02:17.049Z,4.82
2023-05-20T19:04:44.924Z,4.75
2023-05-20T19:07:12.403Z,4.53
2023-05-20T19:09:39.749Z,5.25
2023-05-20T19:12:08.325Z,5.20
2023-05-20T19:14:35.213Z,5.05
2023-05-20T19:17:02.106Z,5.50
2023-05-20T19:19:29.332Z,5.20
2023-05-20T19:21:56.135Z,6.00
2023-05-20T19:24:23.787Z,6.05
2023-05-20T19:26:51.428Z,5.72
2023-05-20T19:29:18.766Z,5.35
2023-05-20T19:31:45.633Z,5.75
2023-05-20T19:34:12.567Z,5.80
2023-05-20T19:36:39.758Z,5.50
2023-05-20T19:39:06.555Z,5.93
2023-05-20T19:41:33.842Z,6.25
2023-05-20T19:44:02.301Z,5.88
2023-05-20T19:46:29.235Z,6.47
2023-05-20T19:48:58.380Z,6.97
2023-05-20T19:51:26.874Z,7.13
2023-05-20T19:54:18.545Z,7.07
2023-05-20T19:56:45.808Z,6.35
2023-05-20T19:59:13.380Z,6.05
2023-05-20T20:01:40.248Z,6.15
2023-05-20T20:04:07.850Z,6.30
2023-05-20T20:06:35.344Z,6.70
2023-05-20T20:09:02.170Z,6.10
2023-05-20T20:11:32.331Z,5.88
2023-05-20T20:13:59.280Z,7.15
2023-05-20T20:16:28.482Z,6.45
2023-05-20T20:18:55.313Z,6.72
2023-05-20T20:21:22.144Z,5.93
2023-05-20T20:23:49.382Z,6.53
2023-05-20T20:26:16.830Z,6.43
2023-05-20T20:28:43.691Z,6.38
2023-05-20T20:31:10.622Z,7.13
2023-05-20T20:33:37.394Z,6.55
2023-05-20T20:36:05.303Z,6.80
2023-05-20T20:38:32.127Z,6.82
2023-05-20T20:40:58.893Z,6.75
2023-05-20T20:43:25.820Z,7.05
2023-05-20T20:45:52.673Z,7.10
2023-05-20T20:48:19.947Z,6.63
2023-05-20T20:50:50.764Z,7.25
2023-05-20T20:53:17.532Z,7.45
2023-05-20T20:55:45.386Z,7.60
2023-05-20T20:58:12.432Z,7.25
2023-05-20T21:00:39.508Z,7.90
2023-05-20T21:03:09.348Z,7.47
2023-05-20T21:05:36.487Z,7.57
2023-05-20T21:08:04.436Z,7.25
2023-05-20T21:10:32.043Z,7.80
2023-05-20T21:12:59.474Z,7.53
2023-05-20T21:15:27.378Z,7.43
2023-05-20T21:17:55.922Z,7.85
2023-05-20T21:20:22.920Z,7.22
2023-05-20T21:22:50.904Z,7.90
2023-05-20T21:25:17.814Z,7.97
2023-05-20T21:28:10.387Z,7.82
2023-05-20T21:30:37.363Z,8.38
2023-05-20T21:33:06.187Z,8.07
2023-05-20T21:35:33.294Z,7.72
2023-05-20T21:38:01.882Z,7.38
2023-05-20T21:40:30.341Z,8.50
2023-05-20T21:42:57.787Z,8.50
2023-05-20T21:45:25.392Z,8.13
2023-05-20T21:47:52.347Z,8.90
2023-05-20T21:50:19.123Z,8.00
2023-05-20T21:55:40.229Z,8.73
2023-05-20T21:58:07.798Z,8.45
2023-05-20T22:00:35.333Z,8.15
2023-05-20T22:03:02.268Z,8.32
2023-05-20T22:05:29.413Z,8.07
2023-05-20T22:07:56.208Z,8.32
2023-05-20T22:10:26.891Z,8.15
2023-05-20T22:12:54.419Z,8.50
2023-05-20T22:15:21.378Z,8.60
2023-05-20T22:17:49.562Z,7.78
2023-05-20T22:20:16.547Z,7.93
2023-05-20T22:22:43.926Z,7.90
2023-05-20T22:25:10.981Z,8.07
2023-05-20T22:27:37.788Z,7.53
2023-05-20T22:30:06.075Z,8.10
2023-05-20T22:35:24.409Z,7.50
2023-05-20T22:37:52.128Z,7.60
2023-05-20T22:40:18.893Z,6.82
2023-05-20T22:42:45.802Z,7.30
2023-05-20T22:45:12.825Z,7.35
2023-05-20T22:47:40.030Z,7.55
2023-05-20T22:50:08.289Z,8.57
2023-05-20T22:53:00.453Z,7.18
2023-05-20T22:55:27.525Z,7.72
2023-05-20T22:57:54.870Z,6.85
2023-05-20T23:00:21.935Z,6.75
2023-05-20T23:02:51.055Z,7.17
2023-05-20T23:05:18.258Z,6.47
2023-05-20T23:07:45.202Z,7.50
2023-05-20T23:10:12.270Z,7.10
2023-05-20T23:12:39.212Z,6.90
2023-05-20T23:15:06.606Z,7.22
2023-05-20T23:17:36.461Z,7.60
2023-05-20T23:20:03.664Z,6.97
2023-05-20T23:22:32.496Z,7.47
2023-05-20T23:24:59.894Z,7.03
2023-05-20T23:27:26.766Z,6.53
2023-05-20T23:29:53.925Z,6.97
2023-05-20T23:32:20.809Z,6.72
2023-05-20T23:34:47.817Z,7.30
2023-05-20T23:37:14.742Z,6.63
2023-05-20T23:39:41.497Z,6.55
2023-05-20T23:42:08.895Z,7.70
2023-05-20T23:44:35.774Z,6.82
2023-05-20T23:47:04.484Z,6.47
2023-05-20T23:49:57.030Z,6.70
2023-05-20T23:52:26.490Z,6.63
2023-05-20T23:54:53.420Z,6.53
2023-05-20T23:57:21.458Z,7.07
2023-05-20T23:59:48.554Z,6.80
